Time;durP1;ratioP1;P1;durP2;ratioP2;P2;SDS_P1;SDS_P2;PMS_P1;PMS_P2;Temp;Humidity;BMP_temperature;BMP_pressure;BME280_temperature;BME280_humidity;BME280_pressure;Samples;Min_cycle;Max_cycle;Signal;HPM_P1;HPM_P2
2022/03/30 00:00:18;;;;;;;;;;;;;;;9.47;100.00;97279.16;10444829;28;19975;-74
2022/03/30 00:05:20;;;;;;;;;;;;;;;9.44;100.00;97269.13;10427602;28;20041;-74
2022/03/30 00:10:20;;;;;;;;;;;;;;;9.39;100.00;97264.00;10428687;28;20000;-75
2022/03/30 00:15:21;;;;;;;;;;;;;;;9.38;100.00;97260.53;10403207;28;19977;-75
2022/03/30 00:20:21;;;;;;;;;;;;;;;9.32;100.00;97253.06;10408885;28;20540;-75
2022/03/30 00:25:22;;;;;;;;;;;;;;;9.32;100.00;97239.69;10421753;28;19929;-75
2022/03/30 00:30:23;;;;;;;;;;;;;;;9.25;100.00;97237.59;10419759;28;19951;-76
2022/03/30 00:35:24;;;;;;;;;;;;;;;9.20;100.00;97226.34;10408859;28;19950;-77
2022/03/30 00:40:24;;;;;;;;;;;;;;;9.08;100.00;97225.25;10418240;28;19939;-77
2022/03/30 00:45:25;;;;;;;;;;;;;;;8.99;100.00;97215.81;10428413;28;19929;-75
2022/03/30 00:50:25;;;;;;;;;;;;;;;8.97;100.00;97223.41;10484662;28;19924;-75
2022/03/30 00:55:26;;;;;;;;;;;;;;;8.91;100.00;97214.03;10428947;28;19937;-76
2022/03/30 01:00:27;;;;;;;;;;;;;;;8.90;100.00;97212.47;10407591;28;19938;-76
2022/03/30 01:05:28;;;;;;;;;;;;;;;8.76;100.00;97210.94;10441374;28;20677;-76
2022/03/30 01:10:29;;;;;;;;;;;;;;;8.67;100.00;97212.94;10418139;28;19929;-75
2022/03/30 01:15:29;;;;;;;;;;;;;;;8.63;100.00;97214.75;10414307;28;19935;-76
2022/03/30 01:20:30;;;;;;;;;;;;;;;8.43;100.00;97208.41;10462792;28;19935;-76
2022/03/30 01:25:31;;;;;;;;;;;;;;;8.27;100.00;97202.91;10436111;28;19925;-76
2022/03/30 01:35:51;;;;;;;;;;;;;;;8.27;100.00;97181.53;10431236;28;19933;-75
2022/03/30 01:40:51;;;;;;;;;;;;;;;8.16;100.00;97183.09;10418768;28;20679;-74
2022/03/30 01:45:51;;;;;;;;;;;;;;;8.17;100.00;97171.28;10418862;28;19929;-75
2022/03/30 01:50:52;;;;;;;;;;;;;;;8.19;100.00;97166.38;10427178;28;20307;-75
2022/03/30 01:55:53;;;;;;;;;;;;;;;8.23;100.00;97161.94;10425943;28;20736;-75
2022/03/30 02:00:57;;;;;;;;;;;;;;;8.25;100.00;97154.34;10381981;28;20478;-75
2022/03/30 02:05:57;;;;;;;;;;;;;;;8.30;100.00;97144.53;10428055;28;20003;-75
2022/03/30 02:10:58;;;;;;;;;;;;;;;8.33;100.00;97135.88;10422626;28;19933;-74
2022/03/30 02:15:59;;;;;;;;;;;;;;;8.36;100.00;97124.53;10404615;28;19925;-74
2022/03/30 02:20:59;;;;;;;;;;;;;;;8.35;100.00;97121.06;10435086;28;20291;-75
2022/03/30 02:26:00;;;;;;;;;;;;;;;8.30;100.00;97115.91;10476328;28;19943;-74
2022/03/30 02:31:00;;;;;;;;;;;;;;;8.27;100.00;97106.69;10474999;28;19929;-75
2022/03/30 02:36:33;;;;;;;;;;;;;;;8.15;100.00;97122.72;10440892;28;20383;-74
2022/03/30 02:41:34;;;;;;;;;;;;;;;8.09;100.00;97116.03;10460386;28;19947;-75
2022/03/30 02:46:36;;;;;;;;;;;;;;;8.13;100.00;97116.91;10453665;28;19929;-75
2022/03/30 02:51:38;;;;;;;;;;;;;;;8.06;100.00;97110.59;10450600;28;20012;-75
2022/03/30 02:56:39;;;;;;;;;;;;;;;8.10;100.00;97103.47;10483117;28;19912;-75
2022/03/30 03:01:40;;;;;;;;;;;;;;;8.11;100.00;97105.78;10465291;28;19937;-75
2022/03/30 03:06:40;;;;;;;;;;;;;;;8.12;100.00;97088.66;10428771;28;19929;-75
2022/03/30 03:11:41;;;;;;;;;;;;;;;8.17;100.00;97090.31;10457189;28;19933;-75
2022/03/30 03:16:41;;;;;;;;;;;;;;;8.21;100.00;97096.53;10420089;28;20025;-74
2022/03/30 03:21:42;;;;;;;;;;;;;;;8.28;100.00;97094.09;10410471;28;19932;-74
2022/03/30 03:26:42;;;;;;;;;;;;;;;8.24;100.00;97110.03;10445310;28;19931;-74
2022/03/30 03:31:43;;;;;;;;;;;;;;;8.21;100.00;97101.88;10454106;28;19936;-75
2022/03/30 03:36:43;;;;;;;;;;;;;;;8.21;100.00;97097.31;10450177;28;19932;-74
2022/03/30 03:41:43;;;;;;;;;;;;;;;8.30;100.00;97091.06;10451447;28;19966;-74
2022/03/30 03:46:44;;;;;;;;;;;;;;;8.32;100.00;97089.66;10440834;28;20272;-75
2022/03/30 03:51:44;;;;;;;;;;;;;;;8.36;100.00;97085.19;10434679;28;19929;-74
2022/03/30 03:56:45;;;;;;;;;;;;;;;8.33;100.00;97077.84;10422669;28;20370;-77
2022/03/30 04:01:45;;;;;;;;;;;;;;;8.35;100.00;97080.97;10434272;28;20073;-76
2022/03/30 04:06:48;;;;;;;;;;;;;;;8.34;100.00;97079.38;10448596;28;19989;-75
2022/03/30 04:11:49;;;;;;;;;;;;;;;8.24;100.00;97072.63;10453153;28;19929;-76
2022/03/30 04:16:49;;;;;;;;;;;;;;;8.42;100.00;97073.16;10427301;28;19925;-77
2022/03/30 04:21:52;;;;;;;;;;;;;;;8.35;100.00;97074.84;10439240;28;19971;-75
2022/03/30 04:26:56;;;;;;;;;;;;;;;8.39;100.00;97062.34;10419602;28;20082;-74
2022/03/30 04:31:58;;;;;;;;;;;;;;;8.37;100.00;97070.72;10424656;28;19932;-74
2022/03/30 04:36:58;;;;;;;;;;;;;;;8.36;100.00;97060.38;10450860;28;19928;-75
2022/03/30 04:42:00;;;;;;;;;;;;;;;8.33;100.00;97048.44;10420694;28;19929;-76
2022/03/30 04:47:00;;;;;;;;;;;;;;;8.12;100.00;97051.22;10418844;28;19932;-75
2022/03/30 04:52:00;;;;;;;;;;;;;;;8.08;100.00;97046.91;10406479;28;19933;-73
2022/03/30 04:57:01;;;;;;;;;;;;;;;8.05;100.00;97047.59;10409800;28;19932;-75
2022/03/30 05:02:01;;;;;;;;;;;;;;;8.02;100.00;97049.03;10417325;28;20806;-75
2022/03/30 05:07:02;;;;;;;;;;;;;;;8.03;100.00;97042.56;10406440;28;19929;-74
2022/03/30 05:12:03;;;;;;;;;;;;;;;7.97;100.00;97039.34;10402109;28;19929;-74
2022/03/30 05:17:04;;;;;;;;;;;;;;;7.96;100.00;97034.34;10441168;28;20116;-75
2022/03/30 05:22:05;;;;;;;;;;;;;;;7.98;100.00;97030.22;10411603;28;19925;-74
2022/03/30 05:27:09;;;;;;;;;;;;;;;8.00;100.00;97035.22;10437027;28;19935;-74
2022/03/30 05:32:09;;;;;;;;;;;;;;;7.98;100.00;97029.44;10447287;28;19928;-74
2022/03/30 05:37:10;;;;;;;;;;;;;;;7.99;100.00;97033.66;10417707;28;19929;-75
2022/03/30 05:42:13;;;;;;;;;;;;;;;8.05;100.00;97027.00;10423978;28;19929;-75
2022/03/30 05:47:16;;;;;;;;;;;;;;;8.15;100.00;97023.84;10450605;28;20335;-71
2022/03/30 05:52:16;;;;;;;;;;;;;;;8.22;100.00;97023.25;10430814;28;20322;-71
2022/03/30 05:57:21;;;;;;;;;;;;;;;8.19;100.00;97024.72;10431488;28;20008;-71
2022/03/30 06:23:18;;;;;;;16.52;10.35;;;;;;;20.33;74.38;96973.00;10478257;28;20462;-64
2022/03/30 06:28:21;;;;;;;14.07;10.05;;;;;;;20.56;70.42;96965.97;10489939;28;20601;-67
2022/03/30 06:33:22;;;;;;;14.55;9.75;;;;;;;20.75;66.58;96978.81;10508721;28;20049;-63
2022/03/30 06:38:22;;;;;;;12.95;9.73;;;;;;;21.20;62.77;96970.81;10463548;28;94174;-66
2022/03/30 06:43:23;;;;;;;12.00;9.18;;;;;;;21.44;61.69;96973.41;10450338;28;123899;-77
2022/03/30 06:48:23;;;;;;;12.47;9.03;;;;;;;21.32;62.28;96971.38;10468915;28;20056;-73
2022/03/30 06:53:24;;;;;;;11.18;8.07;;;;;;;21.49;63.59;96975.66;10445802;28;20911;-73
2022/03/30 06:58:24;;;;;;;12.53;9.90;;;;;;;21.65;63.55;96970.16;10466728;28;20132;-74
2022/03/30 07:03:27;;;;;;;13.30;8.70;;;;;;;21.74;61.15;96964.84;10456096;28;20268;-76
2022/03/30 07:13:47;;;;;;;10.50;7.53;;;;;;;21.75;60.19;96977.31;10455537;28;20765;-72
2022/03/30 07:18:49;;;;;;;10.90;8.10;;;;;;;21.97;60.43;96983.03;10465062;28;20136;-70
2022/03/30 07:23:49;;;;;;;12.10;9.10;;;;;;;21.95;61.27;96982.69;10458333;28;20053;-68
2022/03/30 07:28:50;;;;;;;11.27;8.32;;;;;;;21.92;59.45;96971.84;10460334;28;20048;-70
2022/03/30 07:33:50;;;;;;;12.13;8.52;;;;;;;21.94;63.18;96977.63;10445744;28;20056;-74
2022/03/30 07:38:51;;;;;;;8.47;7.17;;;;;;;21.92;58.25;96986.25;10435026;28;20403;-71
2022/03/30 07:43:51;;;;;;;10.80;7.90;;;;;;;22.06;57.28;96987.88;10438405;28;20280;-70
2022/03/30 07:48:52;;;;;;;10.77;8.70;;;;;;;22.16;57.18;96978.66;10448065;28;20053;-69
2022/03/30 07:53:52;;;;;;;12.18;7.75;;;;;;;22.25;57.11;96987.00;10437172;28;20046;-73
2022/03/30 07:58:53;;;;;;;9.75;7.63;;;;;;;22.22;55.87;96981.59;10447340;28;20046;-70
2022/03/30 08:03:54;;;;;;;10.57;7.40;;;;;;;22.01;59.14;96985.66;10434430;28;20453;-71
2022/03/30 08:08:54;;;;;;;9.43;7.55;;;;;;;22.07;56.69;96971.06;10431576;28;20065;-70
2022/03/30 08:13:56;;;;;;;10.50;6.97;;;;;;;22.26;56.33;96976.84;10437299;28;20144;-73
2022/03/30 08:18:57;;;;;;;24.15;15.70;;;;;;;22.25;56.21;96976.06;10432945;28;20041;-71
2022/03/30 08:23:57;;;;;;;18.35;9.80;;;;;;;22.06;57.68;96974.97;10440315;28;20420;-70
2022/03/30 08:28:57;;;;;;;13.32;9.13;;;;;;;22.21;56.45;96969.16;10424820;28;20046;-72
2022/03/30 08:33:58;;;;;;;8.77;7.55;;;;;;;22.18;56.08;96967.28;10431828;28;20067;-70
2022/03/30 08:39:00;;;;;;;12.18;8.02;;;;;;;22.12;56.07;96969.75;10420588;28;20135;-71
2022/03/30 08:44:00;;;;;;;10.05;8.48;;;;;;;22.11;57.24;96970.97;10430368;28;20393;-73
2022/03/30 08:49:01;;;;;;;9.02;7.55;;;;;;;22.05;56.65;96970.72;10430135;28;20049;-70
2022/03/30 08:54:01;;;;;;;12.48;8.20;;;;;;;22.29;56.06;96971.25;10425680;28;20132;-72
2022/03/30 08:59:07;;;;;;;8.60;7.55;;;;;;;22.29;57.38;96965.78;10439379;28;20566;-76
2022/03/30 09:04:12;;;;;;;13.07;9.68;;;;;;;21.93;56.64;96968.66;10430621;28;20057;-70
2022/03/30 09:09:14;;;;;;;13.98;7.75;;;;;;;21.90;59.39;96966.03;10430749;28;20049;-70
2022/03/30 09:14:18;;;;;;;10.00;7.53;;;;;;;21.98;58.22;96964.66;10427123;28;20084;-71
2022/03/30 09:19:22;;;;;;;13.20;8.13;;;;;;;21.76;65.98;96961.69;10429524;28;20128;-73
2022/03/30 09:24:31;;;;;;;13.32;7.40;;;;;;;21.88;59.66;96950.09;10424840;28;20063;-70
2022/03/30 09:29:36;;;;;;;11.05;7.95;;;;;;;21.97;58.55;96957.66;10432461;28;20705;-70
2022/03/30 09:34:55;;;;;;;13.98;7.85;;;;;;;22.06;59.10;96950.38;10432666;28;20037;-76
2022/03/30 09:39:55;;;;;;;10.82;8.55;;;;;;;22.14;57.83;96949.03;10435024;28;20057;-74
2022/03/30 09:44:56;;;;;;;11.07;8.25;;;;;;;21.98;57.89;96945.53;10415687;28;20126;-69
2022/03/30 09:49:59;;;;;;;13.00;9.07;;;;;;;22.08;57.66;96944.50;10441478;28;20104;-70
2022/03/30 09:55:02;;;;;;;9.25;7.65;;;;;;;22.13;58.14;96933.06;10434374;28;20080;-68
2022/03/30 10:00:08;;;;;;;11.43;8.43;;;;;;;22.15;58.40;96927.94;10429771;28;20120;-71
2022/03/30 10:05:11;;;;;;;10.68;7.70;;;;;;;22.02;58.58;96927.84;10437803;28;20074;-68
2022/03/30 10:10:15;;;;;;;11.57;9.02;;;;;;;22.08;60.29;96917.94;10423206;28;20091;-70
2022/03/30 10:15:15;;;;;;;11.23;9.05;;;;;;;22.27;58.07;96910.78;10426413;28;20052;-73
2022/03/30 10:20:16;;;;;;;9.63;7.65;;;;;;;22.11;58.80;96908.13;10431611;28;20051;-71
2022/03/30 10:25:28;;;;;;;11.50;8.95;;;;;;;22.21;58.82;96907.06;10421614;28;20044;-73
2022/03/30 10:30:31;;;;;;;12.75;9.05;;;;;;;22.23;58.40;96901.19;10427653;28;20509;-70
2022/03/30 10:35:46;;;;;;;18.55;10.07;;;;;;;22.10;59.70;96898.38;10430133;28;20056;-74
2022/03/30 10:40:47;;;;;;;9.88;8.88;;;;;;;22.23;59.04;96891.00;10425793;28;20407;-74
2022/03/30 10:45:56;;;;;;;9.65;7.88;;;;;;;22.26;58.81;96881.94;10429562;28;20106;-73
2022/03/30 10:50:58;;;;;;;9.68;7.88;;;;;;;22.27;58.28;96891.66;10430263;28;20507;-72
2022/03/30 10:56:07;;;;;;;9.60;7.47;;;;;;;22.31;58.22;96880.63;10417233;28;20128;-71
2022/03/30 11:01:49;;;;;;;9.10;7.47;;;;;;;22.27;58.07;96878.00;10443184;28;20057;-72
2022/03/30 11:06:56;;;;;;;10.77;7.70;;;;;;;22.53;58.74;96875.31;10421846;28;20052;-73
2022/03/30 11:12:00;;;;;;;13.98;7.63;;;;;;;22.27;58.73;96861.59;10434371;28;20059;-79
2022/03/30 11:17:05;;;;;;;9.48;7.03;;;;;;;22.11;59.15;96856.97;10442999;28;20041;-79
2022/03/30 11:22:16;;;;;;;13.57;10.68;;;;;;;22.07;58.35;96856.31;10440749;28;20045;-77
2022/03/30 11:27:17;;;;;;;13.65;11.10;;;;;;;22.06;58.59;96846.56;10431108;28;20052;-73
2022/03/30 11:32:24;;;;;;;12.02;10.52;;;;;;;21.94;59.28;96838.31;10440501;28;20048;-71
2022/03/30 11:37:30;;;;;;;11.98;9.90;;;;;;;21.87;60.04;96831.09;10433650;28;20052;-71
2022/03/30 11:42:31;;;;;;;12.38;9.73;;;;;;;21.84;59.41;96840.91;10440452;28;20049;-72
2022/03/30 11:47:32;;;;;;;12.63;9.67;;;;;;;21.85;59.59;96837.00;10437884;28;20063;-72
2022/03/30 11:52:32;;;;;;;11.75;9.25;;;;;;;21.81;59.81;96839.03;10439783;28;20084;-76
2022/03/30 11:57:39;;;;;;;12.63;8.95;;;;;;;21.83;59.98;96833.91;10436458;28;20136;-72
2022/03/30 12:02:44;;;;;;;12.65;10.15;;;;;;;21.78;59.53;96823.53;10445313;28;20072;-71
2022/03/30 12:07:52;;;;;;;11.30;9.10;;;;;;;21.81;59.05;96817.19;10435951;28;20419;-72
2022/03/30 12:12:53;;;;;;;13.18;9.68;;;;;;;22.04;60.17;96815.41;10432975;28;20069;-71
2022/03/30 12:17:58;;;;;;;10.67;9.30;;;;;;;22.04;59.50;96815.41;10428806;28;20072;-73
2022/03/30 12:23:02;;;;;;;10.43;9.02;;;;;;;22.05;59.39;96809.50;10442576;28;20046;-75
2022/03/30 12:28:04;;;;;;;13.35;8.80;;;;;;;21.86;61.67;96800.28;10433996;28;20038;-76
2022/03/30 12:33:05;;;;;;;10.18;7.40;;;;;;;21.76;61.33;96801.34;10434953;28;20056;-68
2022/03/30 12:38:09;;;;;;;13.35;9.85;;;;;;;21.72;59.57;96794.44;10411510;28;20403;-68
2022/03/30 12:43:10;;;;;;;12.13;6.25;;;;;;;22.05;59.41;96790.38;10422195;28;20049;-65
2022/03/30 12:48:10;;;;;;;7.53;5.37;;;;;;;22.04;60.17;96790.81;10432090;28;20119;-67
2022/03/30 12:53:15;;;;;;;8.60;4.95;;;;;;;22.11;60.48;96774.97;10437785;28;20840;-67
2022/03/30 12:58:20;;;;;;;6.03;4.80;;;;;;;22.01;61.61;96776.03;10428751;28;20045;-65
2022/03/30 13:03:32;;;;;;;9.10;4.53;;;;;;;22.31;60.44;96766.59;10423874;28;20191;-71
2022/03/30 13:08:33;;;;;;;9.40;4.40;;;;;;;22.47;63.43;96773.13;10431476;28;20064;-67
2022/03/30 13:13:34;;;;;;;6.77;4.50;;;;;;;22.49;61.26;96762.53;10433856;28;20049;-75
2022/03/30 13:18:34;;;;;;;5.20;3.70;;;;;;;22.35;61.41;96758.28;10436052;28;20283;-67
2022/03/30 13:23:39;;;;;;;6.65;3.60;;;;;;;22.50;61.97;96755.88;10423679;28;20468;-70
2022/03/30 13:28:39;;;;;;;6.03;3.90;;;;;;;22.48;61.32;96761.75;10430644;28;20458;-65
2022/03/30 13:33:40;;;;;;;9.03;4.10;;;;;;;22.47;61.07;96746.56;10433521;28;20108;-67
2022/03/30 13:38:44;;;;;;;5.45;2.95;;;;;;;22.73;60.67;96741.81;10435101;28;20770;-64
2022/03/30 13:43:48;;;;;;;5.35;3.58;;;;;;;22.92;59.12;96737.31;10432645;28;20060;-64
2022/03/30 13:48:49;;;;;;;6.72;3.70;;;;;;;22.93;60.51;96731.41;10437300;28;20048;-64
2022/03/30 13:53:50;;;;;;;7.20;3.55;;;;;;;23.05;60.76;96735.34;10436311;28;20072;-67
2022/03/30 13:58:53;;;;;;;7.33;3.77;;;;;;;22.67;60.27;96730.66;10435487;28;20105;-70
2022/03/30 14:03:54;;;;;;;19.35;7.55;;;;;;;21.98;64.73;96726.97;10434812;28;20052;-71
2022/03/30 14:08:54;;;;;;;24.00;8.70;;;;;;;21.89;66.01;96724.88;10435147;28;20407;-71
2022/03/30 14:13:54;;;;;;;21.55;8.60;;;;;;;21.86;66.54;96732.00;10435144;28;20179;-71
2022/03/30 14:18:55;;;;;;;23.27;9.77;;;;;;;21.84;66.58;96720.72;10429373;28;20049;-69
2022/03/30 14:23:56;;;;;;;26.67;11.13;;;;;;;21.92;65.64;96721.28;10427931;28;20045;-71
2022/03/30 14:28:56;;;;;;;33.73;12.27;;;;;;;22.44;66.64;96720.09;10427404;28;20049;-68
2022/03/30 14:33:57;;;;;;;31.93;12.57;;;;;;;22.55;66.88;96731.47;10434669;28;20287;-67
2022/03/30 14:38:57;;;;;;;34.50;13.30;;;;;;;22.37;65.36;96731.25;10428212;28;20297;-67
2022/03/30 14:43:58;;;;;;;31.75;13.63;;;;;;;22.62;65.04;96727.75;10432524;28;20053;-68
2022/03/30 14:49:00;;;;;;;40.97;13.90;;;;;;;22.76;65.58;96727.25;10427720;28;20053;-69
2022/03/30 14:54:01;;;;;;;33.42;12.93;;;;;;;23.03;63.57;96723.28;10430822;28;20054;-66
2022/03/30 14:59:03;;;;;;;33.33;13.00;;;;;;;22.88;62.94;96734.72;10428913;28;20072;-70
2022/03/30 15:04:04;;;;;;;32.33;11.77;;;;;;;23.19;61.86;96734.81;10435558;28;20072;-71
2022/03/30 15:09:05;;;;;;;34.28;12.38;;;;;;;23.28;59.97;96734.13;10435451;28;20680;-78
2022/03/30 15:14:05;;;;;;;34.33;12.27;;;;;;;23.16;61.43;96735.72;10433909;28;20049;-79
2022/03/30 15:19:06;;;;;;;28.40;11.90;;;;;;;23.16;59.44;96729.47;10434955;28;20068;-74
2022/03/30 15:24:07;;;;;;;23.98;11.65;;;;;;;23.08;59.85;96725.47;10430606;28;20053;-75
2022/03/30 15:29:10;;;;;;;40.03;11.85;;;;;;;23.23;62.10;96723.78;10435570;28;20044;-79
2022/03/30 15:34:10;;;;;;;26.02;11.85;;;;;;;23.24;59.02;96722.56;10449818;28;20045;-77
2022/03/30 15:39:11;;;;;;;22.95;10.73;;;;;;;23.06;60.43;96723.19;10439607;28;20331;-75
2022/03/30 15:44:12;;;;;;;19.83;10.37;;;;;;;22.95;61.00;96723.53;10442060;28;20128;-74
2022/03/30 15:49:13;;;;;;;28.10;11.57;;;;;;;22.14;70.17;96713.25;10440687;28;20053;-67
2022/03/30 15:54:13;;;;;;;21.17;10.18;;;;;;;21.78;71.89;96711.56;10441293;28;20045;-67
2022/03/30 15:59:14;;;;;;;22.70;11.32;;;;;;;21.60;73.21;96713.28;10450235;28;20056;-67
2022/03/30 16:04:14;;;;;;;21.10;10.43;;;;;;;21.46;74.35;96711.69;10454501;28;21013;-67
2022/03/30 16:09:15;;;;;;;18.02;9.93;;;;;;;21.34;75.44;96709.69;10453340;28;20049;-66
2022/03/30 16:14:17;;;;;;;22.27;9.82;;;;;;;21.24;76.36;96712.25;10446492;28;20077;-66
2022/03/30 16:19:19;;;;;;;20.02;9.15;;;;;;;21.13;77.14;96713.75;10446439;28;20061;-67
2022/03/30 16:24:23;;;;;;;19.45;9.68;;;;;;;21.01;76.53;96705.06;10449722;28;20053;-67
2022/03/30 16:29:26;;;;;;;17.92;10.07;;;;;;;20.99;75.55;96712.91;10447106;28;20421;-66
2022/03/30 16:34:27;;;;;;;18.67;10.02;;;;;;;20.92;75.94;96715.81;10452477;28;20044;-67
2022/03/30 16:39:34;;;;;;;19.75;10.13;;;;;;;20.86;75.52;96711.34;10452484;28;20041;-67
2022/03/30 16:44:35;;;;;;;19.60;10.45;;;;;;;20.88;75.40;96709.72;10446104;28;20063;-67
2022/03/30 16:49:35;;;;;;;18.00;8.70;;;;;;;20.95;74.26;96708.75;10448006;28;20049;-65
2022/03/30 16:54:36;;;;;;;17.23;9.23;;;;;;;20.84;75.11;96722.66;10442535;28;20141;-63
2022/03/30 16:59:36;;;;;;;16.42;8.93;;;;;;;20.79;76.05;96727.88;10432145;28;20084;-63
2022/03/30 17:04:37;;;;;;;20.70;9.73;;;;;;;20.77;75.92;96728.31;10439664;28;20063;-64
2022/03/30 17:15:00;;;;;;;16.25;8.75;;;;;;;20.70;76.75;96731.97;10448830;28;20057;-64
2022/03/30 17:20:00;;;;;;;13.63;7.50;;;;;;;20.68;77.08;96728.16;10442050;28;20044;-64
2022/03/30 17:25:01;;;;;;;13.80;8.60;;;;;;;20.66;76.91;96725.06;10440986;28;20061;-64
2022/03/30 17:30:02;;;;;;;12.63;7.50;;;;;;;20.66;76.79;96731.28;10434833;28;20342;-65
2022/03/30 17:35:05;;;;;;;13.30;7.40;;;;;;;20.64;77.61;96732.91;10446530;28;20075;-64
2022/03/30 17:40:06;;;;;;;13.48;7.15;;;;;;;20.63;77.05;96731.38;10439979;28;20152;-64
2022/03/30 17:45:07;;;;;;;13.02;7.60;;;;;;;20.60;77.24;96738.44;10433693;28;20037;-65
2022/03/30 17:55:30;;;;;;;11.50;6.75;;;;;;;20.60;77.24;96738.44;10440172;28;20045;-65
2022/03/30 18:00:31;;;;;;;11.55;6.93;;;;;;;20.58;77.84;96742.81;10433361;28;20052;-66
2022/03/30 18:05:32;;;;;;;12.67;7.47;;;;;;;20.55;77.81;96740.91;10438531;28;20076;-66
2022/03/30 18:10:33;;;;;;;12.02;6.60;;;;;;;20.57;76.98;96743.97;10425878;28;20546;-66
2022/03/30 18:15:33;;;;;;;10.10;6.20;;;;;;;20.59;76.77;96747.06;10428965;28;20056;-65
2022/03/30 18:20:34;;;;;;;13.02;6.65;;;;;;;20.56;76.77;96750.63;10441521;28;20049;-66
2022/03/30 18:25:37;;;;;;;11.80;6.70;;;;;;;20.57;76.30;96766.53;10430775;28;20052;-65
2022/03/30 18:30:38;;;;;;;9.18;5.85;;;;;;;20.58;76.59;96767.34;10436061;28;20057;-64
2022/03/30 18:35:40;;;;;;;10.63;6.43;;;;;;;20.55;76.26;96765.44;10435597;28;20041;-65
2022/03/30 18:40:43;;;;;;;10.10;5.80;;;;;;;20.54;75.75;96767.41;10439767;28;20630;-64
2022/03/30 18:45:44;;;;;;;10.70;5.90;;;;;;;20.53;75.56;96765.88;10436300;28;20053;-64
2022/03/30 18:50:45;;;;;;;8.73;6.05;;;;;;;20.53;76.06;96776.00;10435427;28;20407;-65
2022/03/30 18:55:46;;;;;;;10.55;5.72;;;;;;;20.51;76.12;96778.41;10452128;28;20056;-65
2022/03/30 19:00:46;;;;;;;9.70;5.75;;;;;;;20.50;76.20;96774.16;10434084;28;20085;-65
2022/03/30 19:05:47;;;;;;;9.52;5.75;;;;;;;20.48;76.21;96780.00;10442100;28;20638;-65
2022/03/30 19:10:48;;;;;;;7.78;5.43;;;;;;;20.47;75.87;96777.69;10437974;28;20080;-64
2022/03/30 19:15:49;;;;;;;11.05;6.35;;;;;;;20.43;76.73;96788.69;10431533;28;20061;-64
2022/03/30 19:20:50;;;;;;;8.52;4.80;;;;;;;20.43;76.68;96785.97;10436462;28;20041;-65
2022/03/30 19:25:53;;;;;;;12.10;5.50;;;;;;;20.85;76.71;96797.06;10421480;28;20041;-76
2022/03/30 19:30:54;;;;;;;7.03;5.28;;;;;;;21.28;74.14;96799.50;10444327;28;20664;-77
2022/03/30 19:35:55;;;;;;;10.10;5.07;;;;;;;21.57;79.60;96802.25;10440674;28;20168;-75
2022/03/30 19:40:55;;;;;;;9.50;5.35;;;;;;;21.73;73.52;96810.38;10439730;28;20053;-71
2022/03/30 19:45:56;;;;;;;10.45;5.20;;;;;;;21.76;72.78;96797.81;10437939;28;20052;-70
2022/03/30 19:50:56;;;;;;;8.82;5.25;;;;;;;21.82;73.57;96802.34;10440773;28;20102;-72
2022/03/30 19:55:57;;;;;;;8.07;5.35;;;;;;;21.90;74.34;96802.91;10441056;28;20055;-72
2022/03/30 20:00:57;;;;;;;16.73;5.25;;;;;;;22.17;75.43;96807.25;10436080;28;20053;-72
2022/03/30 20:05:58;;;;;;;5.80;4.30;;;;;;;22.38;75.40;96792.94;10442550;28;20050;-73
2022/03/30 20:10:58;;;;;;;9.05;4.85;;;;;;;22.21;74.08;96788.75;10445221;28;20126;-73
2022/03/30 20:15:59;;;;;;;7.00;4.22;;;;;;;22.27;71.01;96787.78;10439037;28;20037;-75
2022/03/30 20:20:59;;;;;;;6.37;4.50;;;;;;;22.27;72.46;96787.78;10432576;28;20091;-75
2022/03/30 20:26:00;;;;;;;6.88;4.55;;;;;;;22.45;70.23;96787.25;10426673;28;20300;-74
2022/03/30 20:31:01;;;;;;;6.18;4.30;;;;;;;22.46;70.14;96786.03;10437791;28;20049;-72
2022/03/30 20:36:02;;;;;;;6.55;4.18;;;;;;;22.39;69.08;96789.75;10431423;28;20047;-72
2022/03/30 20:41:03;;;;;;;6.87;3.93;;;;;;;22.52;69.19;96787.03;10421257;28;20590;-76
2022/03/30 20:46:03;;;;;;;7.28;4.13;;;;;;;22.95;66.83;96796.63;10430237;28;20065;-77
2022/03/30 20:51:08;;;;;;;6.47;4.57;;;;;;;22.96;67.90;96790.75;10438807;28;20443;-79
2022/03/30 20:56:10;;;;;;;5.35;4.28;;;;;;;22.98;64.02;96784.81;10425274;28;20064;-75
2022/03/30 21:01:11;;;;;;;6.43;4.10;;;;;;;23.03;66.42;96797.94;10433800;28;20120;-81
2022/03/30 21:06:12;;;;;;;8.07;3.65;;;;;;;22.98;67.30;96795.75;10457898;28;20045;-75
2022/03/30 21:11:13;;;;;;;6.78;3.13;;;;;;;23.01;64.34;96783.94;10448362;28;20037;-76
2022/03/30 21:16:13;;;;;;;7.05;3.63;;;;;;;22.98;63.36;96782.09;10455513;28;20056;-80
2022/03/30 21:21:16;;;;;;;6.20;3.90;;;;;;;23.03;63.75;96778.00;10437829;28;20049;-77
2022/03/30 21:26:17;;;;;;;5.78;3.70;;;;;;;23.10;63.31;96777.78;10453677;28;20041;-78
2022/03/30 21:31:19;;;;;;;5.00;3.88;;;;;;;23.17;63.74;96780.28;10436195;28;20053;-77
2022/03/30 21:36:20;;;;;;;4.50;3.08;;;;;;;23.35;61.56;96774.97;10435515;28;20463;-75
2022/03/30 21:41:20;;;;;;;4.32;2.83;;;;;;;23.32;63.56;96775.06;10437829;28;20042;-78
2022/03/30 21:46:21;;;;;;;9.00;3.40;;;;;;;23.14;61.82;96771.00;10430842;28;20077;-74
2022/03/30 21:51:21;;;;;;;8.02;3.47;;;;;;;23.18;61.49;96768.13;10436902;28;20042;-75
2022/03/30 21:56:22;;;;;;;6.95;3.38;;;;;;;23.05;63.13;96767.41;10436663;28;20668;-73
2022/03/30 22:01:23;;;;;;;4.90;3.00;;;;;;;23.27;64.04;96768.19;10434279;28;20077;-73
2022/03/30 22:06:24;;;;;;;4.60;3.20;;;;;;;23.37;60.36;96777.25;10427574;28;20414;-75
2022/03/30 22:11:24;;;;;;;5.32;2.95;;;;;;;23.48;59.40;96777.63;10424167;28;20051;-74
2022/03/30 22:16:26;;;;;;;5.28;3.15;;;;;;;23.42;59.46;96769.25;10409270;28;20079;-75
2022/03/30 22:21:26;;;;;;;5.13;2.85;;;;;;;23.36;59.77;96775.72;10430929;28;20494;-76
2022/03/30 22:26:27;;;;;;;6.80;3.28;;;;;;;22.76;62.67;96775.72;10439416;28;20132;-69
2022/03/30 22:36:47;;;;;;;7.03;2.80;;;;;;;22.04;68.74;96764.25;10453193;28;20074;-68
2022/03/30 22:41:47;;;;;;;4.97;2.80;;;;;;;21.82;70.59;96760.59;10437001;28;20045;-69
2022/03/30 22:46:48;;;;;;;4.57;2.72;;;;;;;21.64;72.31;96754.88;10445646;28;20048;-69
2022/03/30 22:51:49;;;;;;;3.67;2.90;;;;;;;21.57;73.05;96753.88;10445669;28;20061;-70
2022/03/30 22:56:49;;;;;;;4.35;2.70;;;;;;;21.43;73.71;96753.50;10450811;28;20075;-69
2022/03/30 23:01:50;;;;;;;4.10;2.70;;;;;;;21.31;75.10;96743.31;10441034;28;20593;-69
2022/03/30 23:12:09;;;;;;;4.60;2.60;;;;;;;21.26;75.16;96731.72;10454226;28;20484;-68
2022/03/30 23:17:10;;;;;;;4.38;2.80;;;;;;;21.22;75.05;96728.31;10458645;28;20077;-68
2022/03/30 23:22:11;;;;;;;5.63;2.55;;;;;;;21.19;75.32;96717.47;10451574;28;20053;-69
2022/03/30 23:27:11;;;;;;;3.00;2.47;;;;;;;21.11;75.94;96724.31;10456231;28;20049;-69
2022/03/30 23:32:12;;;;;;;3.80;2.63;;;;;;;21.09;74.98;96721.25;10459942;28;20295;-69
2022/03/30 23:37:12;;;;;;;4.38;2.25;;;;;;;21.04;75.58;96719.81;10452861;28;20048;-68
2022/03/30 23:42:14;;;;;;;3.85;2.65;;;;;;;20.98;76.14;96710.63;10465707;28;20747;-68
2022/03/30 23:47:14;;;;;;;3.40;2.43;;;;;;;20.95;76.16;96704.06;10449291;28;20115;-68
2022/03/30 23:52:15;;;;;;;4.22;2.50;;;;;;;20.98;75.85;96700.47;10453924;28;20311;-68
